Exeter, New Hampshire
Current Conditions -  °F | °C
As of 6:58 AM on Sunday 25 Jan 2015 (Local Time) from KPSM Reporting Station
Scattered Clouds Scattered Clouds  
Wind Chill: 21°   Ceiling: Unl
Heat Index: 29°   Visibility: 10mi
Dew Point: 24°   Wind: 8mph
Humidity: 81%   Direction: 260°W
Pressure: 29.43"   Gusts: NA
Location:  42.98°N, 70.95°W
Report Text: KPSM 251158Z 26007KT 10SM FEW050 SCT075 M02/M04 A2943 RMK AO2A SLP970 70082 4/006 T10161044 11000 21016 52030
Loading
Personal Weather Stations






























Interactive Weather Map New forecast layout! Learn more

10-Day Weather Forecast

Advertisements
Track Severe Weather on mobile